sensor_id;sensor_type;location;lat;lon;timestamp;P1;durP1;ratioP1;P2;durP2;ratioP2
295;SDS011;132;48.770;9.200;2023-08-31T00:01:33;3.50;;;2.53;;
295;SDS011;132;48.770;9.200;2023-08-31T00:04:20;5.27;;;2.90;;
295;SDS011;132;48.770;9.200;2023-08-31T00:07:06;6.60;;;2.80;;
295;SDS011;132;48.770;9.200;2023-08-31T00:09:53;4.20;;;2.70;;
295;SDS011;132;48.770;9.200;2023-08-31T00:12:39;3.20;;;2.60;;
295;SDS011;132;48.770;9.200;2023-08-31T00:15:26;5.43;;;2.87;;
295;SDS011;132;48.770;9.200;2023-08-31T00:18:14;6.00;;;2.87;;
295;SDS011;132;48.770;9.200;2023-08-31T00:21:02;5.00;;;3.00;;
295;SDS011;132;48.770;9.200;2023-08-31T00:23:49;4.07;;;2.93;;
295;SDS011;132;48.770;9.200;2023-08-31T00:26:36;9.10;;;3.10;;
295;SDS011;132;48.770;9.200;2023-08-31T00:29:28;6.07;;;2.90;;
295;SDS011;132;48.770;9.200;2023-08-31T00:32:16;4.57;;;2.63;;
295;SDS011;132;48.770;9.200;2023-08-31T00:35:05;5.10;;;3.00;;
295;SDS011;132;48.770;9.200;2023-08-31T00:37:51;7.23;;;3.20;;
295;SDS011;132;48.770;9.200;2023-08-31T00:40:44;6.87;;;3.00;;
295;SDS011;132;48.770;9.200;2023-08-31T00:43:31;10.20;;;3.20;;
295;SDS011;132;48.770;9.200;2023-08-31T00:46:18;4.37;;;3.20;;
295;SDS011;132;48.770;9.200;2023-08-31T00:49:06;5.57;;;3.40;;
295;SDS011;132;48.770;9.200;2023-08-31T00:51:55;6.03;;;3.13;;
295;SDS011;132;48.770;9.200;2023-08-31T00:54:44;6.90;;;3.53;;
295;SDS011;132;48.770;9.200;2023-08-31T00:57:31;7.00;;;3.30;;
295;SDS011;132;48.770;9.200;2023-08-31T01:00:19;4.33;;;3.13;;
295;SDS011;132;48.770;9.200;2023-08-31T01:03:09;5.77;;;3.20;;
295;SDS011;132;48.770;9.200;2023-08-31T01:06:13;4.50;;;3.40;;
295;SDS011;132;48.770;9.200;2023-08-31T01:09:08;6.27;;;3.20;;
295;SDS011;132;48.770;9.200;2023-08-31T01:12:01;9.23;;;3.70;;
295;SDS011;132;48.770;9.200;2023-08-31T01:14:54;6.37;;;3.47;;
295;SDS011;132;48.770;9.200;2023-08-31T01:17:49;6.40;;;3.60;;
295;SDS011;132;48.770;9.200;2023-08-31T01:20:45;4.87;;;3.40;;
295;SDS011;132;48.770;9.200;2023-08-31T01:26:39;6.47;;;3.60;;
295;SDS011;132;48.770;9.200;2023-08-31T01:29:29;9.10;;;3.63;;
295;SDS011;132;48.770;9.200;2023-08-31T01:32:16;5.30;;;3.27;;
295;SDS011;132;48.770;9.200;2023-08-31T01:35:02;6.07;;;3.63;;
295;SDS011;132;48.770;9.200;2023-08-31T01:37:52;5.73;;;3.30;;
295;SDS011;132;48.770;9.200;2023-08-31T01:40:44;7.77;;;3.60;;
295;SDS011;132;48.770;9.200;2023-08-31T01:43:40;4.87;;;3.50;;
295;SDS011;132;48.770;9.200;2023-08-31T01:46:27;7.23;;;3.63;;
295;SDS011;132;48.770;9.200;2023-08-31T01:49:14;5.53;;;3.70;;
295;SDS011;132;48.770;9.200;2023-08-31T01:52:01;6.03;;;3.57;;
295;SDS011;132;48.770;9.200;2023-08-31T01:54:47;6.10;;;3.70;;
295;SDS011;132;48.770;9.200;2023-08-31T01:57:34;4.90;;;3.30;;
295;SDS011;132;48.770;9.200;2023-08-31T02:00:31;4.33;;;3.20;;
295;SDS011;132;48.770;9.200;2023-08-31T02:03:21;7.97;;;3.40;;
295;SDS011;132;48.770;9.200;2023-08-31T02:06:07;4.63;;;3.20;;
295;SDS011;132;48.770;9.200;2023-08-31T02:08:54;4.00;;;2.80;;
295;SDS011;132;48.770;9.200;2023-08-31T02:11:40;7.17;;;2.93;;
295;SDS011;132;48.770;9.200;2023-08-31T02:14:29;4.30;;;3.07;;
295;SDS011;132;48.770;9.200;2023-08-31T02:17:16;5.00;;;3.03;;
295;SDS011;132;48.770;9.200;2023-08-31T02:20:03;4.83;;;3.17;;
295;SDS011;132;48.770;9.200;2023-08-31T02:22:55;4.60;;;3.30;;
295;SDS011;132;48.770;9.200;2023-08-31T02:25:42;4.30;;;3.17;;
295;SDS011;132;48.770;9.200;2023-08-31T02:28:28;5.20;;;2.90;;
295;SDS011;132;48.770;9.200;2023-08-31T02:31:17;5.40;;;3.00;;
295;SDS011;132;48.770;9.200;2023-08-31T02:34:04;4.33;;;2.83;;
295;SDS011;132;48.770;9.200;2023-08-31T02:36:51;3.60;;;2.90;;
295;SDS011;132;48.770;9.200;2023-08-31T02:39:37;6.10;;;2.80;;
295;SDS011;132;48.770;9.200;2023-08-31T02:42:24;4.70;;;3.00;;
295;SDS011;132;48.770;9.200;2023-08-31T02:45:10;4.77;;;2.80;;
295;SDS011;132;48.770;9.200;2023-08-31T02:47:57;6.40;;;2.87;;
295;SDS011;132;48.770;9.200;2023-08-31T02:50:45;8.33;;;3.20;;
295;SDS011;132;48.770;9.200;2023-08-31T02:53:32;6.07;;;3.30;;
295;SDS011;132;48.770;9.200;2023-08-31T02:56:19;5.53;;;3.43;;
295;SDS011;132;48.770;9.200;2023-08-31T02:59:05;4.40;;;3.23;;
295;SDS011;132;48.770;9.200;2023-08-31T03:01:53;2.93;;;2.60;;
295;SDS011;132;48.770;9.200;2023-08-31T03:04:40;6.10;;;3.40;;
295;SDS011;132;48.770;9.200;2023-08-31T03:07:27;7.00;;;3.20;;
295;SDS011;132;48.770;9.200;2023-08-31T03:10:13;11.20;;;3.17;;
295;SDS011;132;48.770;9.200;2023-08-31T03:13:00;5.10;;;3.10;;
295;SDS011;132;48.770;9.200;2023-08-31T03:15:47;4.30;;;2.90;;
295;SDS011;132;48.770;9.200;2023-08-31T03:18:33;8.47;;;3.30;;
295;SDS011;132;48.770;9.200;2023-08-31T03:21:20;11.60;;;3.63;;
295;SDS011;132;48.770;9.200;2023-08-31T03:24:07;7.60;;;3.33;;
295;SDS011;132;48.770;9.200;2023-08-31T03:26:53;4.77;;;3.27;;
295;SDS011;132;48.770;9.200;2023-08-31T03:29:40;3.63;;;3.10;;
295;SDS011;132;48.770;9.200;2023-08-31T03:32:26;4.70;;;3.27;;
295;SDS011;132;48.770;9.200;2023-08-31T03:35:13;5.70;;;3.53;;
295;SDS011;132;48.770;9.200;2023-08-31T03:38:00;4.20;;;3.17;;
295;SDS011;132;48.770;9.200;2023-08-31T03:40:54;4.53;;;3.00;;
295;SDS011;132;48.770;9.200;2023-08-31T03:43:41;4.87;;;3.00;;
295;SDS011;132;48.770;9.200;2023-08-31T03:46:27;3.60;;;2.97;;
295;SDS011;132;48.770;9.200;2023-08-31T03:49:14;6.30;;;4.03;;
295;SDS011;132;48.770;9.200;2023-08-31T03:52:01;4.33;;;3.50;;
295;SDS011;132;48.770;9.200;2023-08-31T03:54:49;5.27;;;3.73;;
295;SDS011;132;48.770;9.200;2023-08-31T03:57:37;5.87;;;3.50;;
295;SDS011;132;48.770;9.200;2023-08-31T04:00:32;5.07;;;3.47;;
295;SDS011;132;48.770;9.200;2023-08-31T04:03:19;9.43;;;4.00;;
295;SDS011;132;48.770;9.200;2023-08-31T04:06:07;8.23;;;3.43;;
295;SDS011;132;48.770;9.200;2023-08-31T04:08:54;6.40;;;3.40;;
295;SDS011;132;48.770;9.200;2023-08-31T04:11:40;6.27;;;3.70;;
295;SDS011;132;48.770;9.200;2023-08-31T04:14:27;4.53;;;3.57;;
295;SDS011;132;48.770;9.200;2023-08-31T04:17:14;5.00;;;3.30;;
295;SDS011;132;48.770;9.200;2023-08-31T04:20:00;6.23;;;3.30;;
295;SDS011;132;48.770;9.200;2023-08-31T04:22:47;7.00;;;3.80;;
295;SDS011;132;48.770;9.200;2023-08-31T04:25:34;4.40;;;3.30;;
295;SDS011;132;48.770;9.200;2023-08-31T04:28:20;6.70;;;3.37;;
295;SDS011;132;48.770;9.200;2023-08-31T04:31:07;5.40;;;3.20;;
295;SDS011;132;48.770;9.200;2023-08-31T04:33:53;5.13;;;3.60;;
295;SDS011;132;48.770;9.200;2023-08-31T04:36:40;6.00;;;3.77;;
295;SDS011;132;48.770;9.200;2023-08-31T04:39:27;7.07;;;3.60;;
295;SDS011;132;48.770;9.200;2023-08-31T04:42:13;5.30;;;3.40;;
295;SDS011;132;48.770;9.200;2023-08-31T04:45:02;13.27;;;3.73;;
295;SDS011;132;48.770;9.200;2023-08-31T04:47:51;12.17;;;3.67;;
295;SDS011;132;48.770;9.200;2023-08-31T04:50:37;14.83;;;3.40;;
295;SDS011;132;48.770;9.200;2023-08-31T04:53:24;9.23;;;3.60;;
295;SDS011;132;48.770;9.200;2023-08-31T04:56:11;5.67;;;3.43;;
295;SDS011;132;48.770;9.200;2023-08-31T04:58:57;6.20;;;3.73;;
295;SDS011;132;48.770;9.200;2023-08-31T05:01:44;7.23;;;3.77;;
295;SDS011;132;48.770;9.200;2023-08-31T05:04:31;6.97;;;3.70;;
295;SDS011;132;48.770;9.200;2023-08-31T05:07:17;7.70;;;3.77;;
295;SDS011;132;48.770;9.200;2023-08-31T05:10:04;5.97;;;3.47;;
295;SDS011;132;48.770;9.200;2023-08-31T05:12:52;10.87;;;4.00;;
295;SDS011;132;48.770;9.200;2023-08-31T05:15:38;9.33;;;3.40;;
295;SDS011;132;48.770;9.200;2023-08-31T05:18:25;8.90;;;3.77;;
295;SDS011;132;48.770;9.200;2023-08-31T05:21:12;8.03;;;3.90;;
295;SDS011;132;48.770;9.200;2023-08-31T05:23:58;6.73;;;3.67;;
295;SDS011;132;48.770;9.200;2023-08-31T05:26:45;8.63;;;3.97;;
295;SDS011;132;48.770;9.200;2023-08-31T05:29:31;6.60;;;3.67;;
295;SDS011;132;48.770;9.200;2023-08-31T05:32:18;9.30;;;3.83;;
295;SDS011;132;48.770;9.200;2023-08-31T05:35:04;9.00;;;3.70;;
295;SDS011;132;48.770;9.200;2023-08-31T05:37:52;8.40;;;3.70;;
295;SDS011;132;48.770;9.200;2023-08-31T05:40:39;6.87;;;3.37;;
295;SDS011;132;48.770;9.200;2023-08-31T05:43:32;11.10;;;3.40;;
295;SDS011;132;48.770;9.200;2023-08-31T05:46:19;6.40;;;3.50;;
295;SDS011;132;48.770;9.200;2023-08-31T05:49:06;6.63;;;3.20;;
295;SDS011;132;48.770;9.200;2023-08-31T05:51:53;9.80;;;3.80;;
295;SDS011;132;48.770;9.200;2023-08-31T05:54:40;5.00;;;3.37;;
295;SDS011;132;48.770;9.200;2023-08-31T05:57:27;9.30;;;3.80;;
295;SDS011;132;48.770;9.200;2023-08-31T06:00:15;7.87;;;3.80;;
295;SDS011;132;48.770;9.200;2023-08-31T06:03:02;6.00;;;3.40;;
295;SDS011;132;48.770;9.200;2023-08-31T06:05:51;9.00;;;3.53;;
295;SDS011;132;48.770;9.200;2023-08-31T06:08:38;8.03;;;3.60;;
295;SDS011;132;48.770;9.200;2023-08-31T06:11:24;5.60;;;3.40;;
295;SDS011;132;48.770;9.200;2023-08-31T06:14:11;6.90;;;3.30;;
295;SDS011;132;48.770;9.200;2023-08-31T06:16:57;8.90;;;3.10;;
295;SDS011;132;48.770;9.200;2023-08-31T06:19:44;7.97;;;3.50;;
295;SDS011;132;48.770;9.200;2023-08-31T06:22:30;4.80;;;3.40;;
295;SDS011;132;48.770;9.200;2023-08-31T06:25:17;6.80;;;3.20;;
295;SDS011;132;48.770;9.200;2023-08-31T06:28:04;7.20;;;3.30;;
295;SDS011;132;48.770;9.200;2023-08-31T06:30:54;8.90;;;3.40;;
295;SDS011;132;48.770;9.200;2023-08-31T06:33:41;4.97;;;3.20;;
295;SDS011;132;48.770;9.200;2023-08-31T06:36:27;7.70;;;3.20;;
295;SDS011;132;48.770;9.200;2023-08-31T06:39:14;7.67;;;3.40;;
295;SDS011;132;48.770;9.200;2023-08-31T06:42:02;8.43;;;3.87;;
295;SDS011;132;48.770;9.200;2023-08-31T06:44:50;6.60;;;3.33;;
295;SDS011;132;48.770;9.200;2023-08-31T06:47:37;8.57;;;3.20;;
295;SDS011;132;48.770;9.200;2023-08-31T06:50:24;7.13;;;3.37;;
295;SDS011;132;48.770;9.200;2023-08-31T06:53:10;12.03;;;3.37;;
295;SDS011;132;48.770;9.200;2023-08-31T06:55:57;7.33;;;3.70;;
295;SDS011;132;48.770;9.200;2023-08-31T06:58:43;40.77;;;38.77;;
295;SDS011;132;48.770;9.200;2023-08-31T07:01:30;6.17;;;4.60;;
295;SDS011;132;48.770;9.200;2023-08-31T07:04:18;8.43;;;4.57;;
295;SDS011;132;48.770;9.200;2023-08-31T07:07:05;8.17;;;3.63;;
295;SDS011;132;48.770;9.200;2023-08-31T07:09:52;9.27;;;4.53;;
295;SDS011;132;48.770;9.200;2023-08-31T07:12:40;7.80;;;3.90;;
295;SDS011;132;48.770;9.200;2023-08-31T07:15:27;7.33;;;3.80;;
295;SDS011;132;48.770;9.200;2023-08-31T07:18:14;8.80;;;3.90;;
295;SDS011;132;48.770;9.200;2023-08-31T07:21:00;6.63;;;4.47;;
295;SDS011;132;48.770;9.200;2023-08-31T07:23:47;6.43;;;4.60;;
295;SDS011;132;48.770;9.200;2023-08-31T07:26:34;8.43;;;4.90;;
295;SDS011;132;48.770;9.200;2023-08-31T07:29:20;5.77;;;4.20;;
295;SDS011;132;48.770;9.200;2023-08-31T07:32:07;5.00;;;3.53;;
295;SDS011;132;48.770;9.200;2023-08-31T07:34:54;5.60;;;3.20;;
295;SDS011;132;48.770;9.200;2023-08-31T07:37:40;8.37;;;3.37;;
295;SDS011;132;48.770;9.200;2023-08-31T07:40:27;14.57;;;13.83;;
295;SDS011;132;48.770;9.200;2023-08-31T07:43:13;434.77;;;414.00;;
295;SDS011;132;48.770;9.200;2023-08-31T07:46:00;238.87;;;227.47;;
295;SDS011;132;48.770;9.200;2023-08-31T07:48:47;477.97;;;455.17;;
295;SDS011;132;48.770;9.200;2023-08-31T07:51:34;498.13;;;474.37;;
295;SDS011;132;48.770;9.200;2023-08-31T07:54:33;582.83;;;555.03;;
295;SDS011;132;48.770;9.200;2023-08-31T07:57:19;771.37;;;734.60;;
295;SDS011;132;48.770;9.200;2023-08-31T08:00:06;808.37;;;769.80;;
295;SDS011;132;48.770;9.200;2023-08-31T08:02:58;853.73;;;813.03;;
295;SDS011;132;48.770;9.200;2023-08-31T08:05:45;738.10;;;702.90;;
295;SDS011;132;48.770;9.200;2023-08-31T08:08:32;806.03;;;767.60;;
295;SDS011;132;48.770;9.200;2023-08-31T08:11:19;898.97;;;856.10;;
295;SDS011;132;48.770;9.200;2023-08-31T08:14:05;932.47;;;888.00;;
295;SDS011;132;48.770;9.200;2023-08-31T08:16:52;953.73;;;908.23;;
295;SDS011;132;48.770;9.200;2023-08-31T08:19:38;968.50;;;922.33;;
295;SDS011;132;48.770;9.200;2023-08-31T08:22:25;987.23;;;940.17;;
295;SDS011;132;48.770;9.200;2023-08-31T08:25:12;1054.63;;;999.90;;
295;SDS011;132;48.770;9.200;2023-08-31T08:27:59;1108.63;;;999.90;;
295;SDS011;132;48.770;9.200;2023-08-31T08:30:45;1096.43;;;999.90;;
295;SDS011;132;48.770;9.200;2023-08-31T08:33:32;791.83;;;754.10;;
295;SDS011;132;48.770;9.200;2023-08-31T08:36:19;927.57;;;883.37;;
295;SDS011;132;48.770;9.200;2023-08-31T08:39:05;938.50;;;893.80;;
295;SDS011;132;48.770;9.200;2023-08-31T08:41:52;361.80;;;344.53;;
295;SDS011;132;48.770;9.200;2023-08-31T08:44:43;1011.47;;;963.27;;
295;SDS011;132;48.770;9.200;2023-08-31T08:47:31;589.60;;;561.50;;
295;SDS011;132;48.770;9.200;2023-08-31T08:50:19;189.97;;;180.87;;
295;SDS011;132;48.770;9.200;2023-08-31T08:53:06;7.80;;;4.20;;
295;SDS011;132;48.770;9.200;2023-08-31T08:58:34;1129.23;;;999.90;;
295;SDS011;132;48.770;9.200;2023-08-31T09:04:16;104.63;;;99.60;;
295;SDS011;132;48.770;9.200;2023-08-31T09:07:02;27.60;;;26.23;;
295;SDS011;132;48.770;9.200;2023-08-31T09:09:49;1136.77;;;999.90;;
295;SDS011;132;48.770;9.200;2023-08-31T09:12:40;868.60;;;827.20;;
295;SDS011;132;48.770;9.200;2023-08-31T09:15:35;7.00;;;3.80;;
295;SDS011;132;48.770;9.200;2023-08-31T09:18:27;4.83;;;3.83;;
295;SDS011;132;48.770;9.200;2023-08-31T09:24:10;1171.40;;;999.90;;
295;SDS011;132;48.770;9.200;2023-08-31T09:26:58;512.73;;;488.27;;
295;SDS011;132;48.770;9.200;2023-08-31T09:29:45;1197.57;;;999.90;;
295;SDS011;132;48.770;9.200;2023-08-31T09:32:32;1134.90;;;999.90;;
295;SDS011;132;48.770;9.200;2023-08-31T09:35:19;7.10;;;3.43;;
295;SDS011;132;48.770;9.200;2023-08-31T09:38:09;7.30;;;3.13;;
295;SDS011;132;48.770;9.200;2023-08-31T09:46:48;1206.00;;;999.90;;
295;SDS011;132;48.770;9.200;2023-08-31T09:49:28;1220.33;;;999.90;;
295;SDS011;132;48.770;9.200;2023-08-31T09:52:15;1236.10;;;999.90;;
295;SDS011;132;48.770;9.200;2023-08-31T09:55:03;1250.63;;;999.90;;
295;SDS011;132;48.770;9.200;2023-08-31T09:57:51;1232.47;;;999.90;;
295;SDS011;132;48.770;9.200;2023-08-31T10:00:41;1273.13;;;999.90;;
295;SDS011;132;48.770;9.200;2023-08-31T10:03:29;1277.63;;;999.90;;
295;SDS011;132;48.770;9.200;2023-08-31T10:06:16;1233.33;;;999.90;;
295;SDS011;132;48.770;9.200;2023-08-31T10:09:04;62.53;;;59.53;;
295;SDS011;132;48.770;9.200;2023-08-31T10:11:51;8.17;;;7.00;;
295;SDS011;132;48.770;9.200;2023-08-31T10:14:39;4.70;;;3.33;;
295;SDS011;132;48.770;9.200;2023-08-31T10:17:26;7.00;;;6.10;;
295;SDS011;132;48.770;9.200;2023-08-31T10:20:16;1264.50;;;999.90;;
295;SDS011;132;48.770;9.200;2023-08-31T10:23:04;1280.63;;;999.90;;
295;SDS011;132;48.770;9.200;2023-08-31T10:28:40;8.70;;;5.23;;
295;SDS011;132;48.770;9.200;2023-08-31T10:31:28;6.77;;;3.50;;
295;SDS011;132;48.770;9.200;2023-08-31T10:34:16;5.40;;;3.27;;
295;SDS011;132;48.770;9.200;2023-08-31T10:37:02;8.80;;;3.17;;
295;SDS011;132;48.770;9.200;2023-08-31T10:40:07;6.03;;;3.30;;
295;SDS011;132;48.770;9.200;2023-08-31T10:43:16;6.03;;;3.20;;
295;SDS011;132;48.770;9.200;2023-08-31T10:46:02;9.40;;;4.40;;
295;SDS011;132;48.770;9.200;2023-08-31T10:49:21;10.13;;;8.83;;
295;SDS011;132;48.770;9.200;2023-08-31T10:52:15;6.90;;;5.40;;
295;SDS011;132;48.770;9.200;2023-08-31T10:55:04;9.50;;;5.50;;
295;SDS011;132;48.770;9.200;2023-08-31T10:57:51;7.43;;;6.20;;
295;SDS011;132;48.770;9.200;2023-08-31T11:00:50;9.40;;;6.20;;
295;SDS011;132;48.770;9.200;2023-08-31T11:03:56;5.27;;;3.60;;
295;SDS011;132;48.770;9.200;2023-08-31T11:06:43;6.00;;;3.50;;
295;SDS011;132;48.770;9.200;2023-08-31T11:09:30;7.83;;;3.90;;
295;SDS011;132;48.770;9.200;2023-08-31T11:12:17;8.10;;;4.00;;
295;SDS011;132;48.770;9.200;2023-08-31T11:15:03;11.03;;;5.10;;
295;SDS011;132;48.770;9.200;2023-08-31T11:17:51;8.43;;;4.20;;
295;SDS011;132;48.770;9.200;2023-08-31T11:20:38;10.03;;;3.23;;
295;SDS011;132;48.770;9.200;2023-08-31T11:23:25;8.00;;;4.20;;
295;SDS011;132;48.770;9.200;2023-08-31T11:26:11;8.73;;;4.43;;
295;SDS011;132;48.770;9.200;2023-08-31T11:28:58;1116.83;;;999.90;;
295;SDS011;132;48.770;9.200;2023-08-31T11:31:45;80.70;;;76.80;;
295;SDS011;132;48.770;9.200;2023-08-31T11:34:32;18.40;;;17.47;;
295;SDS011;132;48.770;9.200;2023-08-31T11:37:19;12.30;;;11.70;;
295;SDS011;132;48.770;9.200;2023-08-31T11:40:07;8.60;;;6.30;;
295;SDS011;132;48.770;9.200;2023-08-31T11:42:55;5.70;;;4.70;;
295;SDS011;132;48.770;9.200;2023-08-31T11:45:42;6.33;;;3.90;;
295;SDS011;132;48.770;9.200;2023-08-31T11:48:29;6.87;;;3.97;;
295;SDS011;132;48.770;9.200;2023-08-31T11:51:16;8.10;;;4.30;;
295;SDS011;132;48.770;9.200;2023-08-31T11:54:05;9.60;;;4.50;;
295;SDS011;132;48.770;9.200;2023-08-31T11:56:51;7.37;;;4.10;;
295;SDS011;132;48.770;9.200;2023-08-31T11:59:38;10.20;;;4.07;;
295;SDS011;132;48.770;9.200;2023-08-31T12:02:26;8.13;;;4.27;;
295;SDS011;132;48.770;9.200;2023-08-31T12:05:13;7.13;;;3.83;;
295;SDS011;132;48.770;9.200;2023-08-31T12:07:59;7.03;;;4.37;;
295;SDS011;132;48.770;9.200;2023-08-31T12:10:48;10.80;;;6.53;;
295;SDS011;132;48.770;9.200;2023-08-31T12:13:34;7.33;;;4.60;;
295;SDS011;132;48.770;9.200;2023-08-31T12:16:21;8.27;;;3.93;;
295;SDS011;132;48.770;9.200;2023-08-31T12:19:09;6.20;;;3.20;;
295;SDS011;132;48.770;9.200;2023-08-31T12:21:56;7.07;;;5.10;;
295;SDS011;132;48.770;9.200;2023-08-31T12:24:42;9.30;;;4.70;;
295;SDS011;132;48.770;9.200;2023-08-31T12:27:29;7.03;;;3.70;;
295;SDS011;132;48.770;9.200;2023-08-31T12:30:16;6.67;;;3.50;;
295;SDS011;132;48.770;9.200;2023-08-31T12:33:03;6.83;;;3.40;;
295;SDS011;132;48.770;9.200;2023-08-31T12:35:49;7.40;;;2.97;;
295;SDS011;132;48.770;9.200;2023-08-31T12:38:36;7.53;;;5.20;;
295;SDS011;132;48.770;9.200;2023-08-31T12:41:23;8.87;;;4.70;;
295;SDS011;132;48.770;9.200;2023-08-31T12:44:09;8.50;;;7.00;;
295;SDS011;132;48.770;9.200;2023-08-31T12:46:56;8.73;;;6.20;;
295;SDS011;132;48.770;9.200;2023-08-31T12:49:42;6.37;;;4.00;;
295;SDS011;132;48.770;9.200;2023-08-31T12:52:29;7.03;;;3.27;;
295;SDS011;132;48.770;9.200;2023-08-31T12:55:16;4.87;;;3.20;;
295;SDS011;132;48.770;9.200;2023-08-31T12:58:02;6.27;;;2.90;;
295;SDS011;132;48.770;9.200;2023-08-31T13:00:49;5.30;;;2.77;;
295;SDS011;132;48.770;9.200;2023-08-31T13:03:39;6.23;;;3.13;;
295;SDS011;132;48.770;9.200;2023-08-31T13:06:25;7.57;;;2.90;;
295;SDS011;132;48.770;9.200;2023-08-31T13:09:12;6.77;;;3.23;;
295;SDS011;132;48.770;9.200;2023-08-31T13:11:59;8.70;;;3.33;;
295;SDS011;132;48.770;9.200;2023-08-31T13:14:45;6.73;;;3.10;;
295;SDS011;132;48.770;9.200;2023-08-31T13:17:32;5.40;;;3.07;;
295;SDS011;132;48.770;9.200;2023-08-31T13:20:19;5.13;;;3.20;;
295;SDS011;132;48.770;9.200;2023-08-31T13:23:06;5.43;;;3.57;;
295;SDS011;132;48.770;9.200;2023-08-31T13:25:53;5.53;;;3.33;;
295;SDS011;132;48.770;9.200;2023-08-31T13:28:39;10.23;;;7.37;;
295;SDS011;132;48.770;9.200;2023-08-31T13:31:27;8.33;;;4.00;;
295;SDS011;132;48.770;9.200;2023-08-31T13:34:14;7.57;;;3.47;;
295;SDS011;132;48.770;9.200;2023-08-31T13:37:01;5.07;;;3.17;;
295;SDS011;132;48.770;9.200;2023-08-31T13:39:49;6.37;;;3.60;;
295;SDS011;132;48.770;9.200;2023-08-31T13:42:48;6.60;;;3.20;;
295;SDS011;132;48.770;9.200;2023-08-31T13:45:45;6.47;;;3.20;;
295;SDS011;132;48.770;9.200;2023-08-31T13:48:31;4.20;;;2.90;;
295;SDS011;132;48.770;9.200;2023-08-31T13:51:18;9.67;;;3.60;;
295;SDS011;132;48.770;9.200;2023-08-31T13:54:04;6.07;;;3.50;;
295;SDS011;132;48.770;9.200;2023-08-31T13:56:51;7.00;;;3.80;;
295;SDS011;132;48.770;9.200;2023-08-31T13:59:38;9.20;;;3.03;;
295;SDS011;132;48.770;9.200;2023-08-31T14:02:24;6.73;;;3.67;;
295;SDS011;132;48.770;9.200;2023-08-31T14:05:11;4.67;;;2.50;;
295;SDS011;132;48.770;9.200;2023-08-31T14:07:58;9.47;;;3.23;;
295;SDS011;132;48.770;9.200;2023-08-31T14:10:47;6.50;;;2.80;;
295;SDS011;132;48.770;9.200;2023-08-31T14:13:34;5.10;;;3.13;;
295;SDS011;132;48.770;9.200;2023-08-31T14:16:20;7.37;;;3.47;;
295;SDS011;132;48.770;9.200;2023-08-31T14:19:07;6.83;;;3.33;;
295;SDS011;132;48.770;9.200;2023-08-31T14:21:54;8.17;;;3.30;;
295;SDS011;132;48.770;9.200;2023-08-31T14:24:41;7.40;;;2.87;;
295;SDS011;132;48.770;9.200;2023-08-31T14:27:27;5.73;;;3.00;;
295;SDS011;132;48.770;9.200;2023-08-31T14:30:16;6.33;;;3.20;;
295;SDS011;132;48.770;9.200;2023-08-31T14:33:02;8.57;;;3.13;;
295;SDS011;132;48.770;9.200;2023-08-31T14:35:50;4.93;;;2.90;;
295;SDS011;132;48.770;9.200;2023-08-31T14:38:40;8.00;;;3.03;;
295;SDS011;132;48.770;9.200;2023-08-31T14:41:29;5.90;;;3.37;;
295;SDS011;132;48.770;9.200;2023-08-31T14:44:16;4.90;;;2.97;;
295;SDS011;132;48.770;9.200;2023-08-31T14:47:03;7.53;;;3.03;;
295;SDS011;132;48.770;9.200;2023-08-31T14:49:49;7.30;;;2.83;;
295;SDS011;132;48.770;9.200;2023-08-31T14:52:36;4.53;;;2.80;;
295;SDS011;132;48.770;9.200;2023-08-31T14:55:23;9.40;;;3.10;;
295;SDS011;132;48.770;9.200;2023-08-31T14:58:11;6.37;;;3.07;;
295;SDS011;132;48.770;9.200;2023-08-31T15:00:57;7.77;;;2.80;;
295;SDS011;132;48.770;9.200;2023-08-31T15:03:44;10.00;;;3.13;;
295;SDS011;132;48.770;9.200;2023-08-31T15:06:30;5.83;;;2.97;;
295;SDS011;132;48.770;9.200;2023-08-31T15:09:18;7.23;;;3.23;;
295;SDS011;132;48.770;9.200;2023-08-31T15:12:06;8.13;;;3.00;;
295;SDS011;132;48.770;9.200;2023-08-31T15:14:53;7.60;;;3.23;;
295;SDS011;132;48.770;9.200;2023-08-31T15:17:39;7.30;;;3.23;;
295;SDS011;132;48.770;9.200;2023-08-31T15:20:26;4.87;;;2.80;;
295;SDS011;132;48.770;9.200;2023-08-31T15:23:13;6.57;;;3.20;;
295;SDS011;132;48.770;9.200;2023-08-31T15:26:00;5.40;;;3.00;;
295;SDS011;132;48.770;9.200;2023-08-31T15:28:48;8.00;;;3.73;;
295;SDS011;132;48.770;9.200;2023-08-31T15:31:36;6.77;;;3.33;;
295;SDS011;132;48.770;9.200;2023-08-31T15:34:22;7.27;;;2.93;;
295;SDS011;132;48.770;9.200;2023-08-31T15:37:09;10.33;;;3.27;;
295;SDS011;132;48.770;9.200;2023-08-31T15:39:57;7.00;;;3.00;;
295;SDS011;132;48.770;9.200;2023-08-31T15:42:44;5.90;;;3.10;;
295;SDS011;132;48.770;9.200;2023-08-31T15:45:31;4.97;;;2.80;;
295;SDS011;132;48.770;9.200;2023-08-31T15:48:17;7.50;;;3.33;;
295;SDS011;132;48.770;9.200;2023-08-31T15:51:04;6.50;;;2.80;;
295;SDS011;132;48.770;9.200;2023-08-31T15:53:50;5.63;;;2.93;;
295;SDS011;132;48.770;9.200;2023-08-31T15:56:38;8.50;;;3.53;;
295;SDS011;132;48.770;9.200;2023-08-31T15:59:24;8.50;;;3.03;;
295;SDS011;132;48.770;9.200;2023-08-31T16:02:11;8.93;;;3.30;;
295;SDS011;132;48.770;9.200;2023-08-31T16:05:05;9.00;;;3.10;;
295;SDS011;132;48.770;9.200;2023-08-31T16:07:52;5.73;;;2.77;;
295;SDS011;132;48.770;9.200;2023-08-31T16:10:39;5.37;;;3.60;;
295;SDS011;132;48.770;9.200;2023-08-31T16:13:25;6.73;;;3.10;;
295;SDS011;132;48.770;9.200;2023-08-31T16:16:12;8.87;;;3.23;;
295;SDS011;132;48.770;9.200;2023-08-31T16:18:59;7.13;;;3.00;;
295;SDS011;132;48.770;9.200;2023-08-31T16:21:45;7.50;;;3.27;;
295;SDS011;132;48.770;9.200;2023-08-31T16:24:32;5.60;;;3.10;;
295;SDS011;132;48.770;9.200;2023-08-31T16:27:19;8.97;;;4.13;;
295;SDS011;132;48.770;9.200;2023-08-31T16:30:05;9.33;;;3.20;;
295;SDS011;132;48.770;9.200;2023-08-31T16:32:52;8.73;;;3.10;;
295;SDS011;132;48.770;9.200;2023-08-31T16:35:39;5.77;;;3.00;;
295;SDS011;132;48.770;9.200;2023-08-31T16:38:26;8.87;;;2.80;;
295;SDS011;132;48.770;9.200;2023-08-31T16:41:13;7.57;;;3.27;;
295;SDS011;132;48.770;9.200;2023-08-31T16:43:59;14.43;;;3.33;;
295;SDS011;132;48.770;9.200;2023-08-31T16:46:46;7.73;;;3.20;;
295;SDS011;132;48.770;9.200;2023-08-31T16:49:32;8.77;;;3.00;;
295;SDS011;132;48.770;9.200;2023-08-31T16:52:19;7.10;;;3.17;;
295;SDS011;132;48.770;9.200;2023-08-31T16:55:05;7.73;;;3.10;;
295;SDS011;132;48.770;9.200;2023-08-31T16:57:53;8.83;;;3.50;;
295;SDS011;132;48.770;9.200;2023-08-31T17:00:40;7.70;;;3.40;;
295;SDS011;132;48.770;9.200;2023-08-31T17:03:26;8.10;;;3.30;;
295;SDS011;132;48.770;9.200;2023-08-31T17:06:13;7.20;;;3.00;;
295;SDS011;132;48.770;9.200;2023-08-31T17:09:00;5.93;;;3.10;;
295;SDS011;132;48.770;9.200;2023-08-31T17:11:46;8.50;;;3.30;;
295;SDS011;132;48.770;9.200;2023-08-31T17:14:33;7.97;;;3.60;;
295;SDS011;132;48.770;9.200;2023-08-31T17:17:19;8.20;;;3.30;;
295;SDS011;132;48.770;9.200;2023-08-31T17:20:10;10.77;;;3.50;;
295;SDS011;132;48.770;9.200;2023-08-31T17:23:02;8.80;;;3.20;;
295;SDS011;132;48.770;9.200;2023-08-31T17:25:50;7.03;;;3.10;;
295;SDS011;132;48.770;9.200;2023-08-31T17:28:36;9.40;;;3.33;;
295;SDS011;132;48.770;9.200;2023-08-31T17:31:23;7.10;;;3.50;;
295;SDS011;132;48.770;9.200;2023-08-31T17:34:10;5.90;;;3.13;;
295;SDS011;132;48.770;9.200;2023-08-31T17:37:01;9.13;;;3.57;;
295;SDS011;132;48.770;9.200;2023-08-31T17:39:48;9.90;;;3.70;;
295;SDS011;132;48.770;9.200;2023-08-31T17:42:37;9.03;;;3.30;;
295;SDS011;132;48.770;9.200;2023-08-31T17:45:26;7.70;;;3.30;;
295;SDS011;132;48.770;9.200;2023-08-31T17:48:13;9.33;;;2.90;;
295;SDS011;132;48.770;9.200;2023-08-31T17:50:59;5.90;;;2.93;;
295;SDS011;132;48.770;9.200;2023-08-31T17:53:46;7.20;;;3.07;;
295;SDS011;132;48.770;9.200;2023-08-31T17:56:32;6.77;;;3.03;;
295;SDS011;132;48.770;9.200;2023-08-31T17:59:19;6.83;;;3.20;;
295;SDS011;132;48.770;9.200;2023-08-31T18:02:06;7.03;;;3.00;;
295;SDS011;132;48.770;9.200;2023-08-31T18:04:53;9.67;;;3.70;;
295;SDS011;132;48.770;9.200;2023-08-31T18:07:40;8.07;;;3.50;;